sensor_id;sensor_type;location;lat;lon;timestamp;P1;durP1;ratioP1;P2;durP2;ratioP2
7247;SDS011;3665;51.034;13.642;2024-02-14T00:03:16;3.37;;;2.93;;
7247;SDS011;3665;51.034;13.642;2024-02-14T00:08:20;4.10;;;2.50;;
7247;SDS011;3665;51.034;13.642;2024-02-14T00:13:13;2.70;;;2.50;;
7247;SDS011;3665;51.034;13.642;2024-02-14T00:19:29;2.60;;;2.40;;
7247;SDS011;3665;51.034;13.642;2024-02-14T00:30:18;3.77;;;2.23;;
7247;SDS011;3665;51.034;13.642;2024-02-14T00:47:46;2.93;;;2.00;;
7247;SDS011;3665;51.034;13.642;2024-02-14T00:53:07;2.03;;;1.83;;
7247;SDS011;3665;51.034;13.642;2024-02-14T00:58:31;2.67;;;2.00;;
7247;SDS011;3665;51.034;13.642;2024-02-14T01:21:43;2.03;;;1.83;;
7247;SDS011;3665;51.034;13.642;2024-02-14T01:27:49;1.80;;;1.70;;
7247;SDS011;3665;51.034;13.642;2024-02-14T01:45:24;3.63;;;2.17;;
7247;SDS011;3665;51.034;13.642;2024-02-14T01:51:07;2.27;;;1.77;;
7247;SDS011;3665;51.034;13.642;2024-02-14T02:02:11;2.27;;;1.80;;
7247;SDS011;3665;51.034;13.642;2024-02-14T02:13:43;3.03;;;1.73;;
7247;SDS011;3665;51.034;13.642;2024-02-14T02:19:46;2.03;;;1.77;;
7247;SDS011;3665;51.034;13.642;2024-02-14T02:43:03;2.17;;;1.83;;
7247;SDS011;3665;51.034;13.642;2024-02-14T02:48:23;2.80;;;1.70;;
7247;SDS011;3665;51.034;13.642;2024-02-14T02:53:29;3.13;;;1.80;;
7247;SDS011;3665;51.034;13.642;2024-02-14T02:59:01;2.23;;;1.70;;
7247;SDS011;3665;51.034;13.642;2024-02-14T03:10:11;2.43;;;1.77;;
7247;SDS011;3665;51.034;13.642;2024-02-14T03:28:27;1.40;;;1.30;;
7247;SDS011;3665;51.034;13.642;2024-02-14T03:34:32;1.90;;;1.67;;
7247;SDS011;3665;51.034;13.642;2024-02-14T03:39:37;1.70;;;1.60;;
7247;SDS011;3665;51.034;13.642;2024-02-14T03:44:53;2.40;;;1.40;;
7247;SDS011;3665;51.034;13.642;2024-02-14T04:01:43;1.37;;;1.27;;
7247;SDS011;3665;51.034;13.642;2024-02-14T04:12:03;4.47;;;1.60;;
7247;SDS011;3665;51.034;13.642;2024-02-14T04:16:49;1.40;;;1.30;;
7247;SDS011;3665;51.034;13.642;2024-02-14T04:21:33;3.10;;;1.30;;
7247;SDS011;3665;51.034;13.642;2024-02-14T04:26:19;1.63;;;1.30;;
7247;SDS011;3665;51.034;13.642;2024-02-14T04:31:05;1.47;;;1.37;;
7247;SDS011;3665;51.034;13.642;2024-02-14T04:36:00;2.60;;;1.30;;
7247;SDS011;3665;51.034;13.642;2024-02-14T04:40:54;2.60;;;1.30;;
7247;SDS011;3665;51.034;13.642;2024-02-14T04:45:38;1.60;;;1.50;;
7247;SDS011;3665;51.034;13.642;2024-02-14T04:50:32;1.30;;;1.20;;
7247;SDS011;3665;51.034;13.642;2024-02-14T04:55:21;3.27;;;1.30;;
7247;SDS011;3665;51.034;13.642;2024-02-14T05:00:08;1.80;;;1.20;;
7247;SDS011;3665;51.034;13.642;2024-02-14T05:04:53;1.80;;;1.23;;
7247;SDS011;3665;51.034;13.642;2024-02-14T05:09:38;2.13;;;1.20;;
7247;SDS011;3665;51.034;13.642;2024-02-14T05:14:29;1.80;;;1.40;;
7247;SDS011;3665;51.034;13.642;2024-02-14T05:19:13;1.43;;;1.33;;
7247;SDS011;3665;51.034;13.642;2024-02-14T05:24:04;1.97;;;1.20;;
7247;SDS011;3665;51.034;13.642;2024-02-14T05:28:58;1.17;;;1.10;;
7247;SDS011;3665;51.034;13.642;2024-02-14T05:33:43;2.30;;;1.30;;
7247;SDS011;3665;51.034;13.642;2024-02-14T05:38:28;2.87;;;1.57;;
7247;SDS011;3665;51.034;13.642;2024-02-14T05:43:18;2.30;;;1.13;;
7247;SDS011;3665;51.034;13.642;2024-02-14T05:48:10;1.70;;;1.13;;
7247;SDS011;3665;51.034;13.642;2024-02-14T05:52:54;2.13;;;1.37;;
7247;SDS011;3665;51.034;13.642;2024-02-14T05:57:42;2.17;;;1.30;;
7247;SDS011;3665;51.034;13.642;2024-02-14T06:02:32;2.77;;;1.00;;
7247;SDS011;3665;51.034;13.642;2024-02-14T06:07:19;1.30;;;1.10;;
7247;SDS011;3665;51.034;13.642;2024-02-14T06:12:09;3.33;;;1.07;;
7247;SDS011;3665;51.034;13.642;2024-02-14T06:16:54;1.47;;;1.03;;
7247;SDS011;3665;51.034;13.642;2024-02-14T06:21:38;1.10;;;1.00;;
7247;SDS011;3665;51.034;13.642;2024-02-14T06:26:31;2.40;;;1.20;;
7247;SDS011;3665;51.034;13.642;2024-02-14T06:31:21;2.13;;;1.93;;
7247;SDS011;3665;51.034;13.642;2024-02-14T06:36:05;3.03;;;1.20;;
7247;SDS011;3665;51.034;13.642;2024-02-14T06:40:51;3.60;;;1.50;;
7247;SDS011;3665;51.034;13.642;2024-02-14T06:45:44;3.13;;;1.30;;
7247;SDS011;3665;51.034;13.642;2024-02-14T06:50:47;2.37;;;1.70;;
7247;SDS011;3665;51.034;13.642;2024-02-14T06:55:33;2.10;;;1.40;;
7247;SDS011;3665;51.034;13.642;2024-02-14T07:00:17;2.03;;;1.93;;
7247;SDS011;3665;51.034;13.642;2024-02-14T07:05:14;2.37;;;1.40;;
7247;SDS011;3665;51.034;13.642;2024-02-14T07:09:57;4.10;;;1.20;;
7247;SDS011;3665;51.034;13.642;2024-02-14T07:14:43;2.60;;;1.20;;
7247;SDS011;3665;51.034;13.642;2024-02-14T07:19:35;1.10;;;1.10;;
7247;SDS011;3665;51.034;13.642;2024-02-14T07:24:22;1.03;;;0.93;;
7247;SDS011;3665;51.034;13.642;2024-02-14T07:29:06;1.17;;;1.10;;
7247;SDS011;3665;51.034;13.642;2024-02-14T07:33:53;1.73;;;0.90;;
7247;SDS011;3665;51.034;13.642;2024-02-14T07:38:45;2.23;;;1.00;;
7247;SDS011;3665;51.034;13.642;2024-02-14T07:43:38;2.60;;;1.40;;
7247;SDS011;3665;51.034;13.642;2024-02-14T07:48:23;3.80;;;2.40;;
7247;SDS011;3665;51.034;13.642;2024-02-14T07:53:10;1.63;;;1.47;;
7247;SDS011;3665;51.034;13.642;2024-02-14T07:57:54;1.30;;;1.10;;
7247;SDS011;3665;51.034;13.642;2024-02-14T08:02:47;1.53;;;1.20;;
7247;SDS011;3665;51.034;13.642;2024-02-14T08:07:37;1.40;;;1.10;;
7247;SDS011;3665;51.034;13.642;2024-02-14T08:12:22;1.93;;;1.03;;
7247;SDS011;3665;51.034;13.642;2024-02-14T08:17:13;1.60;;;1.47;;
7247;SDS011;3665;51.034;13.642;2024-02-14T08:22:00;1.20;;;1.10;;
7247;SDS011;3665;51.034;13.642;2024-02-14T08:26:46;1.97;;;1.17;;
7247;SDS011;3665;51.034;13.642;2024-02-14T08:31:29;2.17;;;1.60;;
7247;SDS011;3665;51.034;13.642;2024-02-14T08:36:22;4.27;;;1.73;;
7247;SDS011;3665;51.034;13.642;2024-02-14T08:41:10;1.70;;;1.10;;
7247;SDS011;3665;51.034;13.642;2024-02-14T08:45:56;1.50;;;1.00;;
7247;SDS011;3665;51.034;13.642;2024-02-14T08:50:40;1.93;;;1.27;;
7247;SDS011;3665;51.034;13.642;2024-02-14T08:55:27;1.53;;;0.90;;
7247;SDS011;3665;51.034;13.642;2024-02-14T09:00:22;1.90;;;1.20;;
7247;SDS011;3665;51.034;13.642;2024-02-14T09:05:12;2.20;;;1.27;;
7247;SDS011;3665;51.034;13.642;2024-02-14T09:09:56;3.60;;;1.17;;
7247;SDS011;3665;51.034;13.642;2024-02-14T09:14:40;1.70;;;1.13;;
7247;SDS011;3665;51.034;13.642;2024-02-14T09:19:35;1.67;;;1.30;;
7247;SDS011;3665;51.034;13.642;2024-02-14T09:24:22;2.70;;;1.33;;
7247;SDS011;3665;51.034;13.642;2024-02-14T09:29:06;1.70;;;1.27;;
7247;SDS011;3665;51.034;13.642;2024-02-14T09:33:59;1.90;;;1.10;;
7247;SDS011;3665;51.034;13.642;2024-02-14T09:44:10;2.03;;;1.30;;
7247;SDS011;3665;51.034;13.642;2024-02-14T09:48:54;1.50;;;1.10;;
7247;SDS011;3665;51.034;13.642;2024-02-14T09:53:43;2.63;;;1.30;;
7247;SDS011;3665;51.034;13.642;2024-02-14T09:58:33;1.50;;;1.00;;
7247;SDS011;3665;51.034;13.642;2024-02-14T10:03:19;1.97;;;1.50;;
7247;SDS011;3665;51.034;13.642;2024-02-14T10:08:09;2.10;;;1.60;;
7247;SDS011;3665;51.034;13.642;2024-02-14T10:12:54;1.33;;;1.23;;
7247;SDS011;3665;51.034;13.642;2024-02-14T10:24:09;2.33;;;1.00;;
7247;SDS011;3665;51.034;13.642;2024-02-14T10:36:13;2.40;;;1.57;;
7247;SDS011;3665;51.034;13.642;2024-02-14T10:42:07;2.87;;;1.63;;
7247;SDS011;3665;51.034;13.642;2024-02-14T10:47:54;2.30;;;1.20;;
7247;SDS011;3665;51.034;13.642;2024-02-14T10:53:32;3.70;;;1.70;;
7247;SDS011;3665;51.034;13.642;2024-02-14T10:59:37;2.63;;;1.10;;
7247;SDS011;3665;51.034;13.642;2024-02-14T11:12:10;1.57;;;1.27;;
7247;SDS011;3665;51.034;13.642;2024-02-14T11:17:51;1.53;;;1.03;;
7247;SDS011;3665;51.034;13.642;2024-02-14T11:45:44;2.17;;;1.10;;
7247;SDS011;3665;51.034;13.642;2024-02-14T11:57:02;0.90;;;0.90;;
7247;SDS011;3665;51.034;13.642;2024-02-14T12:09:28;1.77;;;1.10;;
7247;SDS011;3665;51.034;13.642;2024-02-14T12:20:25;1.30;;;0.97;;
7247;SDS011;3665;51.034;13.642;2024-02-14T12:25:45;1.20;;;1.10;;
7247;SDS011;3665;51.034;13.642;2024-02-14T12:31:22;1.03;;;0.70;;
7247;SDS011;3665;51.034;13.642;2024-02-14T12:53:58;1.13;;;0.93;;
7247;SDS011;3665;51.034;13.642;2024-02-14T12:59:27;1.23;;;0.87;;
7247;SDS011;3665;51.034;13.642;2024-02-14T13:10:50;1.20;;;1.10;;
7247;SDS011;3665;51.034;13.642;2024-02-14T13:21:31;0.90;;;0.90;;
7247;SDS011;3665;51.034;13.642;2024-02-14T13:32:10;1.23;;;1.10;;
7247;SDS011;3665;51.034;13.642;2024-02-14T13:50:31;2.60;;;1.20;;
7247;SDS011;3665;51.034;13.642;2024-02-14T13:56:10;1.20;;;1.10;;
7247;SDS011;3665;51.034;13.642;2024-02-14T14:01:31;1.80;;;1.30;;
7247;SDS011;3665;51.034;13.642;2024-02-14T14:07:58;1.33;;;1.23;;
7247;SDS011;3665;51.034;13.642;2024-02-14T14:13:26;2.43;;;1.37;;
7247;SDS011;3665;51.034;13.642;2024-02-14T14:18:16;1.53;;;1.20;;
7247;SDS011;3665;51.034;13.642;2024-02-14T14:29:45;1.03;;;1.00;;
7247;SDS011;3665;51.034;13.642;2024-02-14T14:47:25;1.30;;;1.20;;
7247;SDS011;3665;51.034;13.642;2024-02-14T14:59:26;1.13;;;1.10;;
7247;SDS011;3665;51.034;13.642;2024-02-14T15:04:42;1.40;;;1.30;;
7247;SDS011;3665;51.034;13.642;2024-02-14T15:22:06;1.47;;;1.30;;
7247;SDS011;3665;51.034;13.642;2024-02-14T15:27:04;1.80;;;1.20;;
7247;SDS011;3665;51.034;13.642;2024-02-14T15:32:10;1.57;;;1.47;;
7247;SDS011;3665;51.034;13.642;2024-02-14T15:37:13;1.20;;;1.10;;
7247;SDS011;3665;51.034;13.642;2024-02-14T15:48:28;1.67;;;1.50;;
7247;SDS011;3665;51.034;13.642;2024-02-14T15:59:38;1.37;;;1.10;;
7247;SDS011;3665;51.034;13.642;2024-02-14T16:29:30;1.63;;;1.50;;
7247;SDS011;3665;51.034;13.642;2024-02-14T16:34:13;2.47;;;1.70;;
7247;SDS011;3665;51.034;13.642;2024-02-14T16:39:03;1.73;;;1.20;;
7247;SDS011;3665;51.034;13.642;2024-02-14T16:43:50;1.83;;;1.40;;
7247;SDS011;3665;51.034;13.642;2024-02-14T16:48:36;2.20;;;2.00;;
7247;SDS011;3665;51.034;13.642;2024-02-14T16:53:27;2.10;;;1.90;;
7247;SDS011;3665;51.034;13.642;2024-02-14T16:58:14;2.10;;;1.87;;
7247;SDS011;3665;51.034;13.642;2024-02-14T17:03:03;2.10;;;1.90;;
7247;SDS011;3665;51.034;13.642;2024-02-14T17:08:08;2.53;;;2.17;;
7247;SDS011;3665;51.034;13.642;2024-02-14T17:12:54;1.60;;;1.50;;
7247;SDS011;3665;51.034;13.642;2024-02-14T17:17:46;1.53;;;1.40;;
7247;SDS011;3665;51.034;13.642;2024-02-14T17:22:31;1.57;;;1.30;;
7247;SDS011;3665;51.034;13.642;2024-02-14T17:27:18;1.90;;;1.77;;
7247;SDS011;3665;51.034;13.642;2024-02-14T17:32:11;2.23;;;1.60;;
7247;SDS011;3665;51.034;13.642;2024-02-14T17:37:12;2.30;;;1.90;;
7247;SDS011;3665;51.034;13.642;2024-02-14T17:41:56;2.80;;;2.37;;
7247;SDS011;3665;51.034;13.642;2024-02-14T17:46:46;1.80;;;1.70;;
7247;SDS011;3665;51.034;13.642;2024-02-14T17:51:39;1.60;;;1.50;;
7247;SDS011;3665;51.034;13.642;2024-02-14T17:56:34;1.80;;;1.70;;
7247;SDS011;3665;51.034;13.642;2024-02-14T18:01:19;2.63;;;2.17;;
7247;SDS011;3665;51.034;13.642;2024-02-14T18:06:10;2.07;;;1.97;;
7247;SDS011;3665;51.034;13.642;2024-02-14T18:10:58;1.80;;;1.70;;
7247;SDS011;3665;51.034;13.642;2024-02-14T18:15:47;4.23;;;1.90;;
7247;SDS011;3665;51.034;13.642;2024-02-14T18:20:34;1.93;;;1.83;;
7247;SDS011;3665;51.034;13.642;2024-02-14T18:25:29;2.40;;;1.70;;
7247;SDS011;3665;51.034;13.642;2024-02-14T18:30:16;1.93;;;1.50;;
7247;SDS011;3665;51.034;13.642;2024-02-14T18:35:02;2.20;;;1.70;;
7247;SDS011;3665;51.034;13.642;2024-02-14T18:39:50;3.40;;;2.37;;
7247;SDS011;3665;51.034;13.642;2024-02-14T18:44:39;2.40;;;1.70;;
7247;SDS011;3665;51.034;13.642;2024-02-14T18:49:26;1.70;;;1.60;;
7247;SDS011;3665;51.034;13.642;2024-02-14T18:54:19;1.73;;;1.63;;
7247;SDS011;3665;51.034;13.642;2024-02-14T18:59:10;2.03;;;1.83;;
7247;SDS011;3665;51.034;13.642;2024-02-14T19:04:10;3.67;;;2.00;;
7247;SDS011;3665;51.034;13.642;2024-02-14T19:08:54;2.80;;;2.10;;
7247;SDS011;3665;51.034;13.642;2024-02-14T19:13:38;2.33;;;1.80;;
7247;SDS011;3665;51.034;13.642;2024-02-14T19:18:22;1.77;;;1.47;;
7247;SDS011;3665;51.034;13.642;2024-02-14T19:23:20;1.63;;;1.10;;
7247;SDS011;3665;51.034;13.642;2024-02-14T19:28:06;1.40;;;1.30;;
7247;SDS011;3665;51.034;13.642;2024-02-14T19:32:51;2.17;;;1.50;;
7247;SDS011;3665;51.034;13.642;2024-02-14T19:37:43;1.50;;;1.40;;
7247;SDS011;3665;51.034;13.642;2024-02-14T19:42:29;1.83;;;1.73;;
7247;SDS011;3665;51.034;13.642;2024-02-14T19:47:12;1.63;;;1.53;;
7247;SDS011;3665;51.034;13.642;2024-02-14T19:52:07;3.20;;;1.70;;
7247;SDS011;3665;51.034;13.642;2024-02-14T19:56:55;1.63;;;1.50;;
7247;SDS011;3665;51.034;13.642;2024-02-14T20:01:43;1.70;;;1.60;;
7247;SDS011;3665;51.034;13.642;2024-02-14T20:06:31;2.90;;;1.97;;
7247;SDS011;3665;51.034;13.642;2024-02-14T20:11:14;2.17;;;1.77;;
7247;SDS011;3665;51.034;13.642;2024-02-14T20:15:59;2.07;;;1.77;;
7247;SDS011;3665;51.034;13.642;2024-02-14T20:20:54;2.03;;;1.80;;
7247;SDS011;3665;51.034;13.642;2024-02-14T20:25:44;3.90;;;2.13;;
7247;SDS011;3665;51.034;13.642;2024-02-14T20:30:27;1.80;;;1.70;;
7247;SDS011;3665;51.034;13.642;2024-02-14T20:35:20;2.20;;;1.97;;
7247;SDS011;3665;51.034;13.642;2024-02-14T20:45:10;2.33;;;1.50;;
7247;SDS011;3665;51.034;13.642;2024-02-14T20:50:00;1.17;;;1.10;;
7247;SDS011;3665;51.034;13.642;2024-02-14T20:54:45;1.77;;;1.33;;
7247;SDS011;3665;51.034;13.642;2024-02-14T20:59:32;2.60;;;1.07;;
7247;SDS011;3665;51.034;13.642;2024-02-14T21:04:24;1.60;;;1.20;;
7247;SDS011;3665;51.034;13.642;2024-02-14T21:09:11;1.20;;;1.13;;
7247;SDS011;3665;51.034;13.642;2024-02-14T21:14:01;1.43;;;1.00;;
7247;SDS011;3665;51.034;13.642;2024-02-14T21:18:46;1.03;;;0.97;;
7247;SDS011;3665;51.034;13.642;2024-02-14T21:23:35;1.87;;;1.20;;
7247;SDS011;3665;51.034;13.642;2024-02-14T21:28:25;1.20;;;1.10;;
7247;SDS011;3665;51.034;13.642;2024-02-14T21:33:12;1.37;;;1.03;;
7247;SDS011;3665;51.034;13.642;2024-02-14T21:37:58;1.10;;;1.10;;
7247;SDS011;3665;51.034;13.642;2024-02-14T21:42:48;1.23;;;1.13;;
7247;SDS011;3665;51.034;13.642;2024-02-14T21:47:37;2.43;;;1.50;;
7247;SDS011;3665;51.034;13.642;2024-02-14T21:52:23;1.30;;;1.30;;
7247;SDS011;3665;51.034;13.642;2024-02-14T21:57:22;1.27;;;1.20;;
7247;SDS011;3665;51.034;13.642;2024-02-14T22:02:15;1.47;;;1.37;;
7247;SDS011;3665;51.034;13.642;2024-02-14T22:07:04;1.17;;;1.10;;
7247;SDS011;3665;51.034;13.642;2024-02-14T22:11:50;1.67;;;1.10;;
7247;SDS011;3665;51.034;13.642;2024-02-14T22:16:37;1.70;;;1.20;;
7247;SDS011;3665;51.034;13.642;2024-02-14T22:21:21;1.20;;;1.10;;
7247;SDS011;3665;51.034;13.642;2024-02-14T22:26:15;1.37;;;1.27;;
7247;SDS011;3665;51.034;13.642;2024-02-14T22:31:22;1.50;;;1.40;;
7247;SDS011;3665;51.034;13.642;2024-02-14T22:36:39;1.33;;;1.20;;
7247;SDS011;3665;51.034;13.642;2024-02-14T22:47:20;2.10;;;1.10;;
7247;SDS011;3665;51.034;13.642;2024-02-14T22:52:25;1.73;;;1.50;;
7247;SDS011;3665;51.034;13.642;2024-02-14T22:57:31;1.33;;;1.23;;
7247;SDS011;3665;51.034;13.642;2024-02-14T23:02:25;1.97;;;1.77;;
7247;SDS011;3665;51.034;13.642;2024-02-14T23:07:27;1.93;;;1.63;;
7247;SDS011;3665;51.034;13.642;2024-02-14T23:12:14;1.60;;;1.50;;
7247;SDS011;3665;51.034;13.642;2024-02-14T23:17:18;1.50;;;1.40;;
7247;SDS011;3665;51.034;13.642;2024-02-14T23:22:24;1.23;;;1.13;;
7247;SDS011;3665;51.034;13.642;2024-02-14T23:27:27;1.30;;;1.30;;
7247;SDS011;3665;51.034;13.642;2024-02-14T23:38:12;2.00;;;1.33;;
7247;SDS011;3665;51.034;13.642;2024-02-14T23:43:24;1.00;;;1.00;;
7247;SDS011;3665;51.034;13.642;2024-02-14T23:48:33;1.90;;;1.40;;
7247;SDS011;3665;51.034;13.642;2024-02-14T23:53:18;1.50;;;1.33;;
7247;SDS011;3665;51.034;13.642;2024-02-14T23:58:40;1.20;;;1.10;;
